sensor_id;sensor_type;location;lat;lon;timestamp;temperature;humidity
70421;SHT31;57848;51.938;15.520;2023-04-24T00:00:32;12.83;89.98
70421;SHT31;57848;51.938;15.520;2023-04-24T00:02:57;12.74;90.17
70421;SHT31;57848;51.938;15.520;2023-04-24T00:05:23;12.67;90.43
70421;SHT31;57848;51.938;15.520;2023-04-24T00:07:49;12.61;90.55
70421;SHT31;57848;51.938;15.520;2023-04-24T00:10:18;12.54;90.66
70421;SHT31;57848;51.938;15.520;2023-04-24T00:12:44;12.46;91.00
70421;SHT31;57848;51.938;15.520;2023-04-24T00:15:10;12.42;90.97
70421;SHT31;57848;51.938;15.520;2023-04-24T00:17:35;12.37;90.95
70421;SHT31;57848;51.938;15.520;2023-04-24T00:20:00;12.36;91.07
70421;SHT31;57848;51.938;15.520;2023-04-24T00:22:29;12.25;91.22
70421;SHT31;57848;51.938;15.520;2023-04-24T00:24:55;12.28;91.06
70421;SHT31;57848;51.938;15.520;2023-04-24T00:27:20;12.25;91.02
70421;SHT31;57848;51.938;15.520;2023-04-24T00:29:46;12.16;91.18
70421;SHT31;57848;51.938;15.520;2023-04-24T00:32:12;12.11;91.13
70421;SHT31;57848;51.938;15.520;2023-04-24T00:34:38;12.05;91.18
70421;SHT31;57848;51.938;15.520;2023-04-24T00:37:03;12.03;90.95
70421;SHT31;57848;51.938;15.520;2023-04-24T00:39:29;12.06;90.39
70421;SHT31;57848;51.938;15.520;2023-04-24T00:41:54;12.09;90.03
70421;SHT31;57848;51.938;15.520;2023-04-24T00:44:20;12.06;90.37
70421;SHT31;57848;51.938;15.520;2023-04-24T00:46:46;12.01;90.42
70421;SHT31;57848;51.938;15.520;2023-04-24T00:49:13;11.98;90.25
70421;SHT31;57848;51.938;15.520;2023-04-24T00:51:40;12.11;89.79
70421;SHT31;57848;51.938;15.520;2023-04-24T00:54:05;12.05;89.88
70421;SHT31;57848;51.938;15.520;2023-04-24T00:56:31;12.01;90.04
70421;SHT31;57848;51.938;15.520;2023-04-24T00:58:57;12.01;90.09
70421;SHT31;57848;51.938;15.520;2023-04-24T01:01:23;12.01;90.08
70421;SHT31;57848;51.938;15.520;2023-04-24T01:03:51;11.93;90.42
70421;SHT31;57848;51.938;15.520;2023-04-24T01:06:16;11.95;90.61
70421;SHT31;57848;51.938;15.520;2023-04-24T01:08:43;11.96;90.54
70421;SHT31;57848;51.938;15.520;2023-04-24T01:11:10;11.98;90.54
70421;SHT31;57848;51.938;15.520;2023-04-24T01:13:35;11.98;90.31
70421;SHT31;57848;51.938;15.520;2023-04-24T01:16:02;12.01;90.29
70421;SHT31;57848;51.938;15.520;2023-04-24T01:18:27;11.96;90.26
70421;SHT31;57848;51.938;15.520;2023-04-24T01:20:58;11.95;90.41
70421;SHT31;57848;51.938;15.520;2023-04-24T01:23:23;11.95;90.32
70421;SHT31;57848;51.938;15.520;2023-04-24T01:25:50;11.96;90.29
70421;SHT31;57848;51.938;15.520;2023-04-24T01:28:17;11.93;90.40
70421;SHT31;57848;51.938;15.520;2023-04-24T01:30:43;11.93;90.41
70421;SHT31;57848;51.938;15.520;2023-04-24T01:33:09;11.93;90.36
70421;SHT31;57848;51.938;15.520;2023-04-24T01:35:35;11.91;90.47
70421;SHT31;57848;51.938;15.520;2023-04-24T01:38:02;11.85;90.56
70421;SHT31;57848;51.938;15.520;2023-04-24T01:40:28;11.86;90.49
70421;SHT31;57848;51.938;15.520;2023-04-24T01:42:57;11.85;90.60
70421;SHT31;57848;51.938;15.520;2023-04-24T01:45:22;11.81;90.61
70421;SHT31;57848;51.938;15.520;2023-04-24T01:47:49;11.82;90.58
70421;SHT31;57848;51.938;15.520;2023-04-24T01:50:16;11.82;90.47
70421;SHT31;57848;51.938;15.520;2023-04-24T01:52:41;11.88;90.09
70421;SHT31;57848;51.938;15.520;2023-04-24T01:55:09;11.84;90.48
70421;SHT31;57848;51.938;15.520;2023-04-24T01:57:35;11.84;90.27
70421;SHT31;57848;51.938;15.520;2023-04-24T02:00:00;11.82;90.26
70421;SHT31;57848;51.938;15.520;2023-04-24T02:02:27;11.84;90.16
70421;SHT31;57848;51.938;15.520;2023-04-24T02:04:56;11.85;89.98
70421;SHT31;57848;51.938;15.520;2023-04-24T02:07:21;11.81;90.13
70421;SHT31;57848;51.938;15.520;2023-04-24T02:09:47;11.85;89.91
70421;SHT31;57848;51.938;15.520;2023-04-24T02:12:13;11.89;89.68
70421;SHT31;57848;51.938;15.520;2023-04-24T02:14:38;11.88;89.74
70421;SHT31;57848;51.938;15.520;2023-04-24T02:17:04;11.88;89.68
70421;SHT31;57848;51.938;15.520;2023-04-24T02:19:30;11.84;89.73
70421;SHT31;57848;51.938;15.520;2023-04-24T02:21:55;11.82;89.84
70421;SHT31;57848;51.938;15.520;2023-04-24T02:24:21;11.86;89.64
70421;SHT31;57848;51.938;15.520;2023-04-24T02:26:46;11.84;89.60
70421;SHT31;57848;51.938;15.520;2023-04-24T02:29:12;11.84;89.53
70421;SHT31;57848;51.938;15.520;2023-04-24T02:31:37;11.89;89.33
70421;SHT31;57848;51.938;15.520;2023-04-24T02:34:02;11.95;89.23
70421;SHT31;57848;51.938;15.520;2023-04-24T02:36:28;11.95;89.07
70421;SHT31;57848;51.938;15.520;2023-04-24T02:38:53;11.95;89.36
70421;SHT31;57848;51.938;15.520;2023-04-24T02:41:18;11.96;89.21
70421;SHT31;57848;51.938;15.520;2023-04-24T02:43:44;12.05;89.07
70421;SHT31;57848;51.938;15.520;2023-04-24T02:46:10;12.18;88.72
70421;SHT31;57848;51.938;15.520;2023-04-24T02:48:35;12.23;88.76
70421;SHT31;57848;51.938;15.520;2023-04-24T02:51:01;12.11;89.87
70421;SHT31;57848;51.938;15.520;2023-04-24T02:53:27;12.02;92.19
70421;SHT31;57848;51.938;15.520;2023-04-24T02:55:52;11.93;93.15
70421;SHT31;57848;51.938;15.520;2023-04-24T02:58:17;11.89;93.09
70421;SHT31;57848;51.938;15.520;2023-04-24T03:00:45;11.81;94.20
70421;SHT31;57848;51.938;15.520;2023-04-24T03:03:11;11.78;94.44
70421;SHT31;57848;51.938;15.520;2023-04-24T03:05:37;11.68;94.56
70421;SHT31;57848;51.938;15.520;2023-04-24T03:08:02;11.67;94.56
70421;SHT31;57848;51.938;15.520;2023-04-24T03:10:27;11.64;94.53
70421;SHT31;57848;51.938;15.520;2023-04-24T03:12:53;11.64;94.26
70421;SHT31;57848;51.938;15.520;2023-04-24T03:15:20;11.53;94.65
70421;SHT31;57848;51.938;15.520;2023-04-24T03:17:45;11.41;95.03
70421;SHT31;57848;51.938;15.520;2023-04-24T03:20:10;11.43;94.76
70421;SHT31;57848;51.938;15.520;2023-04-24T03:22:36;11.43;94.52
70421;SHT31;57848;51.938;15.520;2023-04-24T03:25:05;11.47;94.26
70421;SHT31;57848;51.938;15.520;2023-04-24T03:27:31;11.45;94.21
70421;SHT31;57848;51.938;15.520;2023-04-24T03:30:00;11.48;93.90
70421;SHT31;57848;51.938;15.520;2023-04-24T03:32:35;11.48;93.81
70421;SHT31;57848;51.938;15.520;2023-04-24T03:35:01;11.57;93.73
70421;SHT31;57848;51.938;15.520;2023-04-24T03:37:26;11.60;93.49
70421;SHT31;57848;51.938;15.520;2023-04-24T03:40:03;11.48;93.92
70421;SHT31;57848;51.938;15.520;2023-04-24T03:42:29;11.50;94.18
70421;SHT31;57848;51.938;15.520;2023-04-24T03:44:55;11.53;93.74
70421;SHT31;57848;51.938;15.520;2023-04-24T03:47:23;11.55;93.39
70421;SHT31;57848;51.938;15.520;2023-04-24T03:49:50;11.58;93.79
70421;SHT31;57848;51.938;15.520;2023-04-24T03:52:16;11.64;93.83
70421;SHT31;57848;51.938;15.520;2023-04-24T03:54:42;11.55;93.85
70421;SHT31;57848;51.938;15.520;2023-04-24T03:57:08;11.64;93.81
70421;SHT31;57848;51.938;15.520;2023-04-24T03:59:36;11.68;93.36
70421;SHT31;57848;51.938;15.520;2023-04-24T04:02:15;11.70;92.97
70421;SHT31;57848;51.938;15.520;2023-04-24T04:04:41;11.75;92.91
70421;SHT31;57848;51.938;15.520;2023-04-24T04:07:06;11.68;93.44
70421;SHT31;57848;51.938;15.520;2023-04-24T04:09:32;11.78;92.73
70421;SHT31;57848;51.938;15.520;2023-04-24T04:11:58;11.75;92.65
70421;SHT31;57848;51.938;15.520;2023-04-24T04:14:23;11.70;92.89
70421;SHT31;57848;51.938;15.520;2023-04-24T04:16:49;11.68;92.79
70421;SHT31;57848;51.938;15.520;2023-04-24T04:19:14;11.65;92.88
70421;SHT31;57848;51.938;15.520;2023-04-24T04:21:40;11.65;92.91
70421;SHT31;57848;51.938;15.520;2023-04-24T04:24:13;11.55;93.36
70421;SHT31;57848;51.938;15.520;2023-04-24T04:26:42;11.54;93.16
70421;SHT31;57848;51.938;15.520;2023-04-24T04:29:12;11.55;93.38
70421;SHT31;57848;51.938;15.520;2023-04-24T04:31:42;11.61;92.93
70421;SHT31;57848;51.938;15.520;2023-04-24T04:34:10;11.61;92.80
70421;SHT31;57848;51.938;15.520;2023-04-24T04:36:37;11.57;92.91
70421;SHT31;57848;51.938;15.520;2023-04-24T04:39:38;11.53;93.37
70421;SHT31;57848;51.938;15.520;2023-04-24T04:42:10;11.64;92.98
70421;SHT31;57848;51.938;15.520;2023-04-24T04:44:39;11.72;92.08
70421;SHT31;57848;51.938;15.520;2023-04-24T04:47:06;11.71;92.53
70421;SHT31;57848;51.938;15.520;2023-04-24T04:49:37;11.70;92.52
70421;SHT31;57848;51.938;15.520;2023-04-24T04:52:05;11.72;92.18
70421;SHT31;57848;51.938;15.520;2023-04-24T04:54:30;11.82;92.01
70421;SHT31;57848;51.938;15.520;2023-04-24T04:56:56;11.91;91.44
70421;SHT31;57848;51.938;15.520;2023-04-24T04:59:22;11.93;91.21
70421;SHT31;57848;51.938;15.520;2023-04-24T05:01:52;12.01;91.49
70421;SHT31;57848;51.938;15.520;2023-04-24T05:04:18;12.08;90.39
70421;SHT31;57848;51.938;15.520;2023-04-24T05:06:43;12.12;90.08
70421;SHT31;57848;51.938;15.520;2023-04-24T05:09:08;12.15;90.31
70421;SHT31;57848;51.938;15.520;2023-04-24T05:11:44;12.21;89.34
70421;SHT31;57848;51.938;15.520;2023-04-24T05:14:10;12.18;89.18
70421;SHT31;57848;51.938;15.520;2023-04-24T05:16:37;12.29;89.63
70421;SHT31;57848;51.938;15.520;2023-04-24T05:19:04;12.39;88.99
70421;SHT31;57848;51.938;15.520;2023-04-24T05:21:34;12.39;89.58
70421;SHT31;57848;51.938;15.520;2023-04-24T05:24:00;12.44;89.09
70421;SHT31;57848;51.938;15.520;2023-04-24T05:26:41;12.44;88.20
70421;SHT31;57848;51.938;15.520;2023-04-24T05:29:07;12.43;88.92
70421;SHT31;57848;51.938;15.520;2023-04-24T05:31:33;12.43;89.01
70421;SHT31;57848;51.938;15.520;2023-04-24T05:33:58;12.43;89.28
70421;SHT31;57848;51.938;15.520;2023-04-24T05:36:23;12.49;89.06
70421;SHT31;57848;51.938;15.520;2023-04-24T05:38:49;12.56;88.58
70421;SHT31;57848;51.938;15.520;2023-04-24T05:41:14;12.64;87.73
70421;SHT31;57848;51.938;15.520;2023-04-24T05:43:40;12.68;86.97
70421;SHT31;57848;51.938;15.520;2023-04-24T05:46:06;12.76;86.36
70421;SHT31;57848;51.938;15.520;2023-04-24T05:48:31;12.80;86.30
70421;SHT31;57848;51.938;15.520;2023-04-24T05:50:59;12.80;86.67
70421;SHT31;57848;51.938;15.520;2023-04-24T05:53:24;12.83;86.25
70421;SHT31;57848;51.938;15.520;2023-04-24T05:55:50;12.85;85.50
70421;SHT31;57848;51.938;15.520;2023-04-24T05:58:15;12.88;86.04
70421;SHT31;57848;51.938;15.520;2023-04-24T06:00:41;12.94;85.50
70421;SHT31;57848;51.938;15.520;2023-04-24T06:03:08;13.01;85.67
70421;SHT31;57848;51.938;15.520;2023-04-24T06:05:33;13.08;84.76
70421;SHT31;57848;51.938;15.520;2023-04-24T06:08:01;13.22;84.07
70421;SHT31;57848;51.938;15.520;2023-04-24T06:10:31;13.18;83.90
70421;SHT31;57848;51.938;15.520;2023-04-24T06:12:57;13.15;84.07
70421;SHT31;57848;51.938;15.520;2023-04-24T06:15:30;13.22;84.11
70421;SHT31;57848;51.938;15.520;2023-04-24T06:17:59;13.29;84.89
70421;SHT31;57848;51.938;15.520;2023-04-24T06:20:25;13.35;83.62
70421;SHT31;57848;51.938;15.520;2023-04-24T06:22:50;13.38;83.35
70421;SHT31;57848;51.938;15.520;2023-04-24T06:25:16;13.36;83.58
70421;SHT31;57848;51.938;15.520;2023-04-24T06:27:42;13.28;83.11
70421;SHT31;57848;51.938;15.520;2023-04-24T06:30:08;13.34;83.57
70421;SHT31;57848;51.938;15.520;2023-04-24T06:32:35;13.38;83.56
70421;SHT31;57848;51.938;15.520;2023-04-24T06:35:00;13.45;83.58
70421;SHT31;57848;51.938;15.520;2023-04-24T06:37:26;13.48;83.14
70421;SHT31;57848;51.938;15.520;2023-04-24T06:39:51;13.56;82.91
70421;SHT31;57848;51.938;15.520;2023-04-24T06:42:17;13.52;82.88
70421;SHT31;57848;51.938;15.520;2023-04-24T06:44:43;13.45;82.84
70421;SHT31;57848;51.938;15.520;2023-04-24T06:47:10;13.48;82.97
70421;SHT31;57848;51.938;15.520;2023-04-24T06:49:36;13.55;82.95
70421;SHT31;57848;51.938;15.520;2023-04-24T06:52:02;13.55;82.54
70421;SHT31;57848;51.938;15.520;2023-04-24T06:54:27;13.62;82.60
70421;SHT31;57848;51.938;15.520;2023-04-24T06:56:52;13.63;82.76
70421;SHT31;57848;51.938;15.520;2023-04-24T06:59:18;13.70;82.72
70421;SHT31;57848;51.938;15.520;2023-04-24T07:01:43;13.77;82.86
70421;SHT31;57848;51.938;15.520;2023-04-24T07:04:09;13.87;82.29
70421;SHT31;57848;51.938;15.520;2023-04-24T07:06:35;13.91;81.15
70421;SHT31;57848;51.938;15.520;2023-04-24T07:09:01;13.87;82.02
70421;SHT31;57848;51.938;15.520;2023-04-24T07:11:26;13.97;81.59
70421;SHT31;57848;51.938;15.520;2023-04-24T07:13:54;13.97;81.89
70421;SHT31;57848;51.938;15.520;2023-04-24T07:16:19;14.04;81.93
70421;SHT31;57848;51.938;15.520;2023-04-24T07:18:45;13.97;81.23
70421;SHT31;57848;51.938;15.520;2023-04-24T07:21:10;14.03;81.37
70421;SHT31;57848;51.938;15.520;2023-04-24T07:23:36;14.07;81.30
70421;SHT31;57848;51.938;15.520;2023-04-24T07:26:02;14.16;80.28
70421;SHT31;57848;51.938;15.520;2023-04-24T07:28:27;14.24;80.13
70421;SHT31;57848;51.938;15.520;2023-04-24T07:30:56;14.38;79.79
70421;SHT31;57848;51.938;15.520;2023-04-24T07:33:22;14.51;78.81
70421;SHT31;57848;51.938;15.520;2023-04-24T07:35:47;14.61;79.14
70421;SHT31;57848;51.938;15.520;2023-04-24T07:38:13;14.65;78.13
70421;SHT31;57848;51.938;15.520;2023-04-24T07:40:38;14.67;78.41
70421;SHT31;57848;51.938;15.520;2023-04-24T07:43:03;14.65;78.30
70421;SHT31;57848;51.938;15.520;2023-04-24T07:45:29;14.62;78.06
70421;SHT31;57848;51.938;15.520;2023-04-24T07:47:54;14.67;77.82
70421;SHT31;57848;51.938;15.520;2023-04-24T07:50:20;14.72;77.69
70421;SHT31;57848;51.938;15.520;2023-04-24T07:52:45;14.75;77.58
70421;SHT31;57848;51.938;15.520;2023-04-24T07:55:11;14.88;76.62
70421;SHT31;57848;51.938;15.520;2023-04-24T07:57:36;14.88;76.22
70421;SHT31;57848;51.938;15.520;2023-04-24T08:00:03;14.78;76.30
70421;SHT31;57848;51.938;15.520;2023-04-24T08:02:36;14.95;76.49
70421;SHT31;57848;51.938;15.520;2023-04-24T08:05:02;15.02;76.69
70421;SHT31;57848;51.938;15.520;2023-04-24T08:07:28;14.96;76.41
70421;SHT31;57848;51.938;15.520;2023-04-24T08:09:54;14.95;76.75
70421;SHT31;57848;51.938;15.520;2023-04-24T08:12:19;14.82;76.31
70421;SHT31;57848;51.938;15.520;2023-04-24T08:14:45;14.82;76.74
70421;SHT31;57848;51.938;15.520;2023-04-24T08:17:10;14.76;76.30
70421;SHT31;57848;51.938;15.520;2023-04-24T08:19:35;14.82;76.78
70421;SHT31;57848;51.938;15.520;2023-04-24T08:22:01;14.83;76.77
70421;SHT31;57848;51.938;15.520;2023-04-24T08:24:26;14.80;76.58
70421;SHT31;57848;51.938;15.520;2023-04-24T08:26:52;14.83;76.42
70421;SHT31;57848;51.938;15.520;2023-04-24T08:29:19;14.65;77.22
70421;SHT31;57848;51.938;15.520;2023-04-24T08:31:44;14.65;77.16
70421;SHT31;57848;51.938;15.520;2023-04-24T08:34:10;14.65;78.05
70421;SHT31;57848;51.938;15.520;2023-04-24T08:36:36;14.69;77.21
70421;SHT31;57848;51.938;15.520;2023-04-24T08:39:01;14.69;77.57
70421;SHT31;57848;51.938;15.520;2023-04-24T08:41:27;14.73;77.23
70421;SHT31;57848;51.938;15.520;2023-04-24T08:43:52;14.71;77.72
70421;SHT31;57848;51.938;15.520;2023-04-24T08:46:19;14.71;76.82
70421;SHT31;57848;51.938;15.520;2023-04-24T08:48:45;14.68;77.07
70421;SHT31;57848;51.938;15.520;2023-04-24T08:51:11;14.69;76.08
70421;SHT31;57848;51.938;15.520;2023-04-24T08:53:36;14.85;75.71
70421;SHT31;57848;51.938;15.520;2023-04-24T08:56:27;14.86;74.24
70421;SHT31;57848;51.938;15.520;2023-04-24T08:59:32;14.86;75.04
70421;SHT31;57848;51.938;15.520;2023-04-24T09:01:59;14.83;75.19
70421;SHT31;57848;51.938;15.520;2023-04-24T09:04:25;14.92;75.87
70421;SHT31;57848;51.938;15.520;2023-04-24T09:06:55;14.88;75.20
70421;SHT31;57848;51.938;15.520;2023-04-24T09:09:21;14.90;74.47
70421;SHT31;57848;51.938;15.520;2023-04-24T09:11:49;14.92;76.24
70421;SHT31;57848;51.938;15.520;2023-04-24T09:14:15;14.89;76.14
70421;SHT31;57848;51.938;15.520;2023-04-24T09:16:41;14.95;76.02
70421;SHT31;57848;51.938;15.520;2023-04-24T09:19:07;15.14;76.52
70421;SHT31;57848;51.938;15.520;2023-04-24T09:21:33;15.29;75.43
70421;SHT31;57848;51.938;15.520;2023-04-24T09:24:05;15.39;74.80
70421;SHT31;57848;51.938;15.520;2023-04-24T09:26:32;15.40;74.79
70421;SHT31;57848;51.938;15.520;2023-04-24T09:28:58;15.47;74.49
70421;SHT31;57848;51.938;15.520;2023-04-24T09:31:27;15.41;74.54
70421;SHT31;57848;51.938;15.520;2023-04-24T09:34:03;15.46;75.48
70421;SHT31;57848;51.938;15.520;2023-04-24T09:36:35;15.41;74.42
70421;SHT31;57848;51.938;15.520;2023-04-24T09:39:05;15.27;74.61
70421;SHT31;57848;51.938;15.520;2023-04-24T09:41:32;15.36;74.28
70421;SHT31;57848;51.938;15.520;2023-04-24T09:44:17;15.37;74.22
70421;SHT31;57848;51.938;15.520;2023-04-24T09:46:45;15.29;72.75
70421;SHT31;57848;51.938;15.520;2023-04-24T09:49:15;15.24;72.73
70421;SHT31;57848;51.938;15.520;2023-04-24T09:51:43;15.16;72.91
70421;SHT31;57848;51.938;15.520;2023-04-24T09:54:16;15.20;72.92
70421;SHT31;57848;51.938;15.520;2023-04-24T09:56:49;15.20;71.45
70421;SHT31;57848;51.938;15.520;2023-04-24T09:59:17;15.20;70.96
70421;SHT31;57848;51.938;15.520;2023-04-24T10:01:43;15.31;69.72
70421;SHT31;57848;51.938;15.520;2023-04-24T10:04:19;15.29;68.64
70421;SHT31;57848;51.938;15.520;2023-04-24T10:06:46;15.22;69.80
70421;SHT31;57848;51.938;15.520;2023-04-24T10:09:12;15.22;67.91
70421;SHT31;57848;51.938;15.520;2023-04-24T10:11:43;15.20;69.14
70421;SHT31;57848;51.938;15.520;2023-04-24T10:14:22;15.22;68.36
70421;SHT31;57848;51.938;15.520;2023-04-24T10:16:49;15.26;68.15
70421;SHT31;57848;51.938;15.520;2023-04-24T10:19:16;15.29;67.35
70421;SHT31;57848;51.938;15.520;2023-04-24T10:21:43;15.33;68.07
70421;SHT31;57848;51.938;15.520;2023-04-24T10:24:16;15.33;67.82
70421;SHT31;57848;51.938;15.520;2023-04-24T10:26:42;15.39;67.43
70421;SHT31;57848;51.938;15.520;2023-04-24T10:29:07;15.50;68.29
70421;SHT31;57848;51.938;15.520;2023-04-24T10:31:36;15.46;67.42
70421;SHT31;57848;51.938;15.520;2023-04-24T10:34:03;15.51;66.60
70421;SHT31;57848;51.938;15.520;2023-04-24T10:36:30;15.54;66.96
70421;SHT31;57848;51.938;15.520;2023-04-24T10:38:59;15.48;66.78
70421;SHT31;57848;51.938;15.520;2023-04-24T10:41:25;15.58;66.61
70421;SHT31;57848;51.938;15.520;2023-04-24T10:46:29;15.57;67.88
70421;SHT31;57848;51.938;15.520;2023-04-24T10:48:56;15.50;67.77
70421;SHT31;57848;51.938;15.520;2023-04-24T10:51:24;15.50;69.97
70421;SHT31;57848;51.938;15.520;2023-04-24T10:53:52;15.48;70.75
70421;SHT31;57848;51.938;15.520;2023-04-24T10:56:18;15.43;70.62
70421;SHT31;57848;51.938;15.520;2023-04-24T10:58:44;15.44;71.31
70421;SHT31;57848;51.938;15.520;2023-04-24T11:01:30;15.31;71.78
70421;SHT31;57848;51.938;15.520;2023-04-24T11:04:01;15.46;74.20
70421;SHT31;57848;51.938;15.520;2023-04-24T11:06:29;15.43;71.94
70421;SHT31;57848;51.938;15.520;2023-04-24T11:09:03;15.39;73.25
70421;SHT31;57848;51.938;15.520;2023-04-24T11:11:29;15.43;73.40
70421;SHT31;57848;51.938;15.520;2023-04-24T11:19:02;15.92;73.00
70421;SHT31;57848;51.938;15.520;2023-04-24T11:21:57;16.05;70.42
70421;SHT31;57848;51.938;15.520;2023-04-24T11:24:32;16.18;70.87
70421;SHT31;57848;51.938;15.520;2023-04-24T11:27:18;16.20;70.33
70421;SHT31;57848;51.938;15.520;2023-04-24T11:30:10;16.20;71.40
70421;SHT31;57848;51.938;15.520;2023-04-24T11:32:36;16.42;69.59
70421;SHT31;57848;51.938;15.520;2023-04-24T11:35:16;16.43;70.37
70421;SHT31;57848;51.938;15.520;2023-04-24T11:37:49;16.33;68.80
70421;SHT31;57848;51.938;15.520;2023-04-24T11:40:16;16.29;69.65
70421;SHT31;57848;51.938;15.520;2023-04-24T11:42:47;16.42;70.11
70421;SHT31;57848;51.938;15.520;2023-04-24T11:45:23;16.61;69.34
70421;SHT31;57848;51.938;15.520;2023-04-24T11:47:49;16.90;69.12
70421;SHT31;57848;51.938;15.520;2023-04-24T11:50:17;17.01;67.71
70421;SHT31;57848;51.938;15.520;2023-04-24T11:52:44;16.94;67.97
70421;SHT31;57848;51.938;15.520;2023-04-24T11:57:38;16.81;67.68
70421;SHT31;57848;51.938;15.520;2023-04-24T12:00:04;16.90;68.37
70421;SHT31;57848;51.938;15.520;2023-04-24T12:02:37;17.03;67.59
70421;SHT31;57848;51.938;15.520;2023-04-24T12:05:02;17.14;66.94
70421;SHT31;57848;51.938;15.520;2023-04-24T12:07:28;17.21;67.47
70421;SHT31;57848;51.938;15.520;2023-04-24T12:09:58;17.01;67.16
70421;SHT31;57848;51.938;15.520;2023-04-24T12:12:26;16.97;68.21
70421;SHT31;57848;51.938;15.520;2023-04-24T12:14:56;16.95;68.25
70421;SHT31;57848;51.938;15.520;2023-04-24T12:17:30;16.91;69.34
70421;SHT31;57848;51.938;15.520;2023-04-24T12:20:04;17.11;69.23
70421;SHT31;57848;51.938;15.520;2023-04-24T12:22:49;17.25;68.64
70421;SHT31;57848;51.938;15.520;2023-04-24T12:25:18;17.03;70.34
70421;SHT31;57848;51.938;15.520;2023-04-24T12:27:52;16.64;71.45
70421;SHT31;57848;51.938;15.520;2023-04-24T12:30:18;16.29;73.06
70421;SHT31;57848;51.938;15.520;2023-04-24T12:32:47;15.98;77.68
70421;SHT31;57848;51.938;15.520;2023-04-24T12:35:14;15.60;80.37
70421;SHT31;57848;51.938;15.520;2023-04-24T12:37:43;15.34;83.65
70421;SHT31;57848;51.938;15.520;2023-04-24T12:40:11;14.30;96.15
70421;SHT31;57848;51.938;15.520;2023-04-24T12:42:48;13.90;93.78
70421;SHT31;57848;51.938;15.520;2023-04-24T12:45:14;13.73;94.90
70421;SHT31;57848;51.938;15.520;2023-04-24T12:47:41;13.43;89.54
70421;SHT31;57848;51.938;15.520;2023-04-24T12:50:11;13.38;91.55
70421;SHT31;57848;51.938;15.520;2023-04-24T12:52:37;13.36;89.74
70421;SHT31;57848;51.938;15.520;2023-04-24T12:55:04;13.29;92.70
70421;SHT31;57848;51.938;15.520;2023-04-24T12:57:33;13.21;89.76
70421;SHT31;57848;51.938;15.520;2023-04-24T13:00:00;13.12;90.61
70421;SHT31;57848;51.938;15.520;2023-04-24T13:02:28;13.12;93.04
70421;SHT31;57848;51.938;15.520;2023-04-24T13:04:55;13.07;90.26
70421;SHT31;57848;51.938;15.520;2023-04-24T13:07:20;13.00;89.75
70421;SHT31;57848;51.938;15.520;2023-04-24T13:09:47;13.00;89.80
70421;SHT31;57848;51.938;15.520;2023-04-24T13:12:14;13.04;91.08
70421;SHT31;57848;51.938;15.520;2023-04-24T13:14:39;13.02;90.96
70421;SHT31;57848;51.938;15.520;2023-04-24T13:17:05;13.04;91.41
70421;SHT31;57848;51.938;15.520;2023-04-24T13:19:39;13.12;89.88
70421;SHT31;57848;51.938;15.520;2023-04-24T13:22:04;13.16;90.45
70421;SHT31;57848;51.938;15.520;2023-04-24T13:24:31;13.12;88.62
70421;SHT31;57848;51.938;15.520;2023-04-24T13:26:57;13.16;88.25
70421;SHT31;57848;51.938;15.520;2023-04-24T13:29:23;13.15;89.52
70421;SHT31;57848;51.938;15.520;2023-04-24T13:31:50;13.16;89.44
70421;SHT31;57848;51.938;15.520;2023-04-24T13:34:17;13.32;89.45
70421;SHT31;57848;51.938;15.520;2023-04-24T13:36:42;13.53;87.62
70421;SHT31;57848;51.938;15.520;2023-04-24T13:39:08;13.62;88.62
70421;SHT31;57848;51.938;15.520;2023-04-24T13:41:33;13.76;86.79
70421;SHT31;57848;51.938;15.520;2023-04-24T13:43:59;13.70;86.09
70421;SHT31;57848;51.938;15.520;2023-04-24T13:46:25;13.80;85.57
70421;SHT31;57848;51.938;15.520;2023-04-24T13:48:50;13.91;88.45
70421;SHT31;57848;51.938;15.520;2023-04-24T13:51:16;13.97;86.34
70421;SHT31;57848;51.938;15.520;2023-04-24T13:53:41;14.16;86.47
70421;SHT31;57848;51.938;15.520;2023-04-24T13:56:07;14.20;87.00
70421;SHT31;57848;51.938;15.520;2023-04-24T13:58:33;14.21;86.53
70421;SHT31;57848;51.938;15.520;2023-04-24T14:00:58;14.09;86.26
70421;SHT31;57848;51.938;15.520;2023-04-24T14:03:24;14.03;85.24
70421;SHT31;57848;51.938;15.520;2023-04-24T14:05:49;13.93;86.53
70421;SHT31;57848;51.938;15.520;2023-04-24T14:08:15;14.00;87.26
70421;SHT31;57848;51.938;15.520;2023-04-24T14:10:40;14.04;85.67
70421;SHT31;57848;51.938;15.520;2023-04-24T14:13:06;13.97;86.21
70421;SHT31;57848;51.938;15.520;2023-04-24T14:15:31;13.93;87.01
70421;SHT31;57848;51.938;15.520;2023-04-24T14:17:57;13.86;86.95
70421;SHT31;57848;51.938;15.520;2023-04-24T14:20:22;13.96;87.01
70421;SHT31;57848;51.938;15.520;2023-04-24T14:22:48;13.96;87.92
70421;SHT31;57848;51.938;15.520;2023-04-24T14:25:13;13.91;87.60
70421;SHT31;57848;51.938;15.520;2023-04-24T14:27:38;13.93;87.50
70421;SHT31;57848;51.938;15.520;2023-04-24T14:30:05;13.83;87.43
70421;SHT31;57848;51.938;15.520;2023-04-24T14:32:31;13.86;87.32
70421;SHT31;57848;51.938;15.520;2023-04-24T14:34:56;13.83;86.99
70421;SHT31;57848;51.938;15.520;2023-04-24T14:37:22;13.97;87.69
70421;SHT31;57848;51.938;15.520;2023-04-24T14:39:47;14.11;86.83
70421;SHT31;57848;51.938;15.520;2023-04-24T14:42:12;14.34;86.59
70421;SHT31;57848;51.938;15.520;2023-04-24T14:44:38;14.28;86.86
70421;SHT31;57848;51.938;15.520;2023-04-24T14:47:04;14.38;86.21
70421;SHT31;57848;51.938;15.520;2023-04-24T14:49:30;14.40;87.00
70421;SHT31;57848;51.938;15.520;2023-04-24T14:51:55;14.64;86.57
70421;SHT31;57848;51.938;15.520;2023-04-24T14:54:20;14.49;86.15
70421;SHT31;57848;51.938;15.520;2023-04-24T14:56:49;14.61;85.99
70421;SHT31;57848;51.938;15.520;2023-04-24T14:59:14;14.55;85.15
70421;SHT31;57848;51.938;15.520;2023-04-24T15:01:40;14.40;84.56
70421;SHT31;57848;51.938;15.520;2023-04-24T15:04:05;14.34;84.71
70421;SHT31;57848;51.938;15.520;2023-04-24T15:06:31;14.32;85.15
70421;SHT31;57848;51.938;15.520;2023-04-24T15:08:57;14.41;83.52
70421;SHT31;57848;51.938;15.520;2023-04-24T15:11:22;14.41;83.87
70421;SHT31;57848;51.938;15.520;2023-04-24T15:13:49;14.25;83.84
70421;SHT31;57848;51.938;15.520;2023-04-24T15:16:14;14.21;83.98
70421;SHT31;57848;51.938;15.520;2023-04-24T15:18:40;14.21;85.00
70421;SHT31;57848;51.938;15.520;2023-04-24T15:21:05;14.18;84.35
70421;SHT31;57848;51.938;15.520;2023-04-24T15:23:31;14.16;84.32
70421;SHT31;57848;51.938;15.520;2023-04-24T15:25:56;14.24;84.15